createdAt,value
2022-11-07T00:04:55.178Z,2.37
2022-11-07T00:15:28.186Z,2.90
2022-11-07T00:26:12.810Z,2.63
2022-11-07T00:31:16.100Z,3.67
2022-11-07T00:41:56.215Z,3.03
2022-11-07T00:46:58.369Z,4.10
2022-11-07T00:52:00.687Z,3.27
2022-11-07T00:57:02.671Z,4.00
2022-11-07T01:02:05.026Z,3.50
2022-11-07T01:07:13.941Z,3.37
2022-11-07T01:12:16.388Z,3.77
2022-11-07T01:17:18.370Z,2.77
2022-11-07T01:22:20.568Z,2.50
2022-11-07T01:27:22.829Z,2.70
2022-11-07T01:32:24.943Z,3.17
2022-11-07T01:37:27.007Z,2.80
2022-11-07T01:42:29.219Z,2.83
2022-11-07T01:47:35.546Z,2.83
2022-11-07T01:52:41.976Z,2.33
2022-11-07T01:57:51.800Z,3.00
2022-11-07T02:03:07.137Z,2.80
2022-11-07T02:08:10.525Z,2.40
2022-11-07T02:13:23.157Z,2.20
2022-11-07T02:18:27.344Z,2.60
2022-11-07T02:23:56.231Z,2.00
2022-11-07T02:28:58.733Z,2.30
2022-11-07T02:34:00.547Z,2.10
2022-11-07T02:39:02.446Z,2.17
2022-11-07T02:44:09.768Z,2.23
2022-11-07T02:49:11.669Z,2.00
2022-11-07T02:54:13.497Z,2.40
2022-11-07T02:59:15.310Z,1.80
2022-11-07T03:04:17.172Z,2.23
2022-11-07T03:09:18.974Z,1.97
2022-11-07T03:14:20.975Z,1.90
2022-11-07T03:19:22.844Z,1.90
2022-11-07T03:24:24.701Z,1.70
2022-11-07T03:29:26.793Z,2.10
2022-11-07T03:34:28.676Z,1.17
2022-11-07T03:39:30.512Z,1.43
2022-11-07T03:44:32.328Z,1.40
2022-11-07T03:49:34.116Z,1.70
2022-11-07T03:54:35.959Z,1.57
2022-11-07T03:59:37.826Z,1.60
2022-11-07T04:04:39.710Z,1.67
2022-11-07T04:09:41.562Z,1.43
2022-11-07T04:15:01.822Z,2.00
2022-11-07T04:20:04.638Z,1.60
2022-11-07T04:25:07.138Z,1.43
2022-11-07T04:30:26.107Z,1.43
2022-11-07T04:35:31.725Z,1.53
2022-11-07T04:40:33.602Z,1.60
2022-11-07T04:45:37.093Z,1.60
2022-11-07T04:50:39.276Z,1.50
2022-11-07T04:55:41.699Z,1.40
2022-11-07T05:00:43.545Z,1.70
2022-11-07T05:05:45.401Z,1.63
2022-11-07T05:10:47.187Z,1.60
2022-11-07T05:15:50.358Z,1.60
2022-11-07T05:20:52.322Z,1.77
2022-11-07T05:25:55.075Z,1.70
2022-11-07T05:31:02.354Z,1.53
2022-11-07T05:36:24.637Z,1.70
2022-11-07T05:41:26.473Z,1.40
2022-11-07T05:46:28.305Z,1.90
2022-11-07T05:51:30.130Z,1.63
2022-11-07T05:56:31.961Z,1.60
2022-11-07T06:01:33.927Z,1.70
2022-11-07T06:06:35.888Z,1.80
2022-11-07T06:11:37.980Z,3.20
2022-11-07T06:16:39.809Z,1.70
2022-11-07T06:21:41.734Z,2.30
2022-11-07T06:26:43.565Z,2.30
2022-11-07T06:31:45.706Z,2.00
2022-11-07T06:36:59.957Z,2.40
2022-11-07T06:42:04.871Z,2.53
2022-11-07T06:47:06.681Z,2.53
2022-11-07T06:52:08.569Z,2.17
2022-11-07T06:57:10.568Z,2.43
2022-11-07T07:02:21.692Z,2.43
2022-11-07T07:07:35.372Z,2.87
2022-11-07T07:12:37.274Z,2.80
2022-11-07T07:17:39.168Z,1.97
2022-11-07T07:22:41.080Z,2.47
2022-11-07T07:27:42.938Z,1.97
2022-11-07T07:32:44.822Z,2.20
2022-11-07T07:37:53.146Z,1.73
2022-11-07T07:42:54.965Z,2.47
2022-11-07T07:48:03.100Z,2.03
2022-11-07T07:53:08.829Z,2.57
2022-11-07T07:58:12.147Z,3.00
2022-11-07T08:03:14.455Z,2.60
2022-11-07T08:08:16.526Z,2.60
2022-11-07T08:13:18.621Z,2.73
2022-11-07T08:18:22.065Z,3.03
2022-11-07T08:23:24.524Z,3.17
2022-11-07T08:28:28.480Z,3.20
2022-11-07T08:33:30.734Z,3.30
2022-11-07T08:38:34.449Z,3.07
2022-11-07T08:43:36.278Z,3.40
2022-11-07T08:48:39.227Z,3.27
2022-11-07T08:53:41.068Z,3.37
2022-11-07T08:58:42.910Z,3.23
2022-11-07T09:03:50.280Z,2.60
2022-11-07T09:08:55.150Z,2.60
2022-11-07T09:13:57.597Z,3.40
2022-11-07T09:18:59.414Z,2.83
2022-11-07T09:24:01.415Z,3.10
2022-11-07T09:29:04.150Z,2.90
2022-11-07T09:34:07.407Z,2.93
2022-11-07T09:39:09.310Z,2.60
2022-11-07T09:44:32.363Z,2.60
2022-11-07T09:49:42.900Z,2.00
2022-11-07T09:54:50.710Z,1.97
2022-11-07T10:00:00.179Z,1.83
2022-11-07T10:05:03.789Z,2.13
2022-11-07T10:10:20.203Z,2.30
2022-11-07T10:15:47.749Z,1.77
2022-11-07T10:21:35.639Z,1.57
2022-11-07T10:26:28.987Z,1.43
2022-11-07T10:31:38.441Z,1.23
2022-11-07T10:36:40.272Z,1.27
2022-11-07T10:41:47.565Z,1.13
2022-11-07T10:46:53.210Z,1.63
2022-11-07T10:52:08.702Z,1.27
2022-11-07T10:57:22.567Z,1.40
2022-11-07T11:02:31.145Z,0.80
2022-11-07T11:07:35.265Z,1.80
2022-11-07T11:12:37.599Z,1.37
2022-11-07T11:17:40.156Z,1.30
2022-11-07T11:22:43.321Z,1.00
2022-11-07T11:27:48.315Z,1.10
2022-11-07T11:32:52.038Z,0.97
2022-11-07T11:38:04.270Z,0.90
2022-11-07T11:43:23.172Z,1.00
2022-11-07T11:48:41.388Z,1.00
2022-11-07T11:53:43.236Z,0.80
2022-11-07T11:59:06.376Z,0.80
2022-11-07T12:04:33.619Z,1.30
2022-11-07T12:09:48.663Z,1.10
2022-11-07T12:15:18.612Z,0.80
2022-11-07T12:20:26.373Z,0.90
2022-11-07T12:25:34.947Z,0.80
2022-11-07T12:30:42.761Z,1.37
2022-11-07T12:36:13.740Z,0.90
2022-11-07T12:41:37.552Z,1.07
2022-11-07T12:46:48.506Z,0.90
2022-11-07T12:52:02.969Z,1.10
2022-11-07T12:57:12.972Z,0.80
2022-11-07T13:02:39.154Z,0.93
2022-11-07T13:07:50.175Z,0.90
2022-11-07T13:13:10.835Z,0.90
2022-11-07T13:18:27.254Z,0.93
2022-11-07T13:23:29.990Z,0.90
2022-11-07T13:28:57.633Z,1.03
2022-11-07T13:34:39.152Z,1.00
2022-11-07T13:39:41.261Z,1.10
2022-11-07T13:44:49.673Z,0.80
2022-11-07T13:49:55.552Z,0.80
2022-11-07T13:55:05.627Z,0.80
2022-11-07T14:00:14.881Z,1.00
2022-11-07T14:05:18.235Z,0.90
2022-11-07T14:10:31.689Z,1.40
2022-11-07T14:15:35.313Z,1.00
2022-11-07T14:20:37.140Z,0.93
2022-11-07T14:25:39.058Z,1.00
2022-11-07T14:30:42.213Z,1.00
2022-11-07T14:35:50.407Z,0.83
2022-11-07T14:40:59.172Z,1.00
2022-11-07T14:46:13.268Z,1.43
2022-11-07T14:51:18.900Z,0.90
2022-11-07T14:56:25.866Z,1.03
2022-11-07T15:01:34.141Z,0.67
2022-11-07T15:06:42.934Z,1.00
2022-11-07T15:12:00.678Z,1.23
2022-11-07T15:17:04.361Z,0.97
2022-11-07T15:22:06.441Z,1.40
2022-11-07T15:27:14.245Z,1.00
2022-11-07T15:32:19.056Z,1.23
2022-11-07T15:37:23.226Z,1.10
2022-11-07T15:42:25.122Z,1.43
2022-11-07T15:47:27.100Z,1.10
2022-11-07T15:52:28.916Z,1.20
2022-11-07T15:57:31.469Z,1.33
2022-11-07T16:02:33.426Z,1.50
2022-11-07T16:07:35.592Z,1.30
2022-11-07T16:12:37.509Z,1.30
2022-11-07T16:17:39.528Z,1.70
2022-11-07T16:22:42.380Z,2.17
2022-11-07T16:27:55.165Z,1.53
2022-11-07T16:32:56.962Z,2.47
2022-11-07T16:37:59.360Z,1.77
2022-11-07T16:43:03.449Z,1.53
2022-11-07T16:48:05.952Z,3.00
2022-11-07T16:53:12.320Z,2.27
2022-11-07T16:58:29.287Z,1.90
2022-11-07T17:03:31.990Z,3.47
2022-11-07T17:08:41.213Z,2.33
2022-11-07T17:13:44.633Z,3.50
2022-11-07T17:18:47.350Z,2.07
2022-11-07T17:23:49.881Z,2.17
2022-11-07T17:28:52.418Z,2.70
2022-11-07T17:33:54.302Z,2.50
2022-11-07T17:39:00.997Z,2.73
2022-11-07T17:44:04.069Z,3.10
2022-11-07T17:49:07.794Z,2.20
2022-11-07T17:54:14.514Z,2.33
2022-11-07T17:59:18.486Z,2.60
2022-11-07T18:04:20.334Z,3.07
2022-11-07T18:09:22.196Z,2.10
2022-11-07T18:14:25.058Z,3.17
2022-11-07T18:19:26.911Z,2.70
2022-11-07T18:24:28.805Z,4.47
2022-11-07T18:29:30.678Z,6.17
2022-11-07T18:34:32.828Z,3.50
2022-11-07T18:39:34.652Z,3.00
2022-11-07T18:44:36.537Z,2.57
2022-11-07T18:49:38.462Z,2.70
2022-11-07T18:54:40.442Z,3.47
2022-11-07T18:59:42.346Z,2.77
2022-11-07T19:04:44.687Z,2.40
2022-11-07T19:09:46.667Z,2.17
2022-11-07T19:14:48.580Z,2.80
2022-11-07T19:19:50.428Z,3.80
2022-11-07T19:24:52.233Z,5.33
2022-11-07T19:29:54.172Z,3.20
2022-11-07T19:34:56.151Z,3.37
2022-11-07T19:39:58.026Z,4.30
2022-11-07T19:44:59.957Z,3.00
2022-11-07T19:50:01.952Z,3.40
2022-11-07T19:55:04.244Z,2.40
2022-11-07T20:00:07.345Z,3.13
2022-11-07T20:05:09.818Z,3.00
2022-11-07T20:10:11.987Z,2.93
2022-11-07T20:15:14.204Z,2.13
2022-11-07T20:20:16.089Z,2.93
2022-11-07T20:25:18.023Z,2.60
2022-11-07T20:30:19.927Z,3.07
2022-11-07T20:35:21.798Z,3.13
2022-11-07T20:40:29.034Z,3.70
2022-11-07T20:45:31.243Z,3.47
2022-11-07T20:50:33.153Z,2.67
2022-11-07T20:55:42.655Z,5.20
2022-11-07T21:00:46.975Z,2.77
2022-11-07T21:05:52.095Z,2.30
2022-11-07T21:10:55.425Z,2.37
2022-11-07T21:15:57.241Z,2.60
2022-11-07T21:21:10.348Z,2.17
2022-11-07T21:26:17.631Z,2.67
2022-11-07T21:31:24.011Z,2.80
2022-11-07T21:36:28.580Z,2.70
2022-11-07T21:41:31.044Z,4.20
2022-11-07T21:46:35.610Z,4.10
2022-11-07T21:51:37.445Z,4.03
2022-11-07T21:56:40.155Z,3.80
2022-11-07T22:01:42.293Z,3.13
2022-11-07T22:06:45.691Z,4.20
2022-11-07T22:11:48.994Z,3.80
2022-11-07T22:16:51.485Z,4.67
2022-11-07T22:21:53.441Z,4.40
2022-11-07T22:26:55.826Z,4.80
2022-11-07T22:31:59.279Z,3.83
2022-11-07T22:37:01.157Z,4.03
2022-11-07T22:42:03.314Z,3.70
2022-11-07T22:47:05.206Z,4.00
2022-11-07T22:52:07.137Z,3.30
2022-11-07T22:57:11.172Z,2.90
2022-11-07T23:02:14.953Z,2.70
2022-11-07T23:07:16.918Z,3.27
2022-11-07T23:12:18.698Z,3.30
2022-11-07T23:17:20.524Z,3.00
2022-11-07T23:22:22.367Z,2.53
2022-11-07T23:27:24.892Z,2.50
2022-11-07T23:32:27.662Z,2.50
2022-11-07T23:37:29.459Z,2.60
2022-11-07T23:42:31.256Z,2.50
2022-11-07T23:47:51.719Z,2.47
2022-11-07T23:52:54.043Z,2.80
2022-11-07T23:58:15.020Z,2.67
